Time;durP1;ratioP1;P1;durP2;ratioP2;P2;SDS_P1;SDS_P2;PMS_P1;PMS_P2;Temp;Humidity;BMP_temperature;BMP_pressure;BME280_temperature;BME280_humidity;BME280_pressure;Samples;Min_cycle;Max_cycle;Signal;HPM_P1;HPM_P2
2021/11/09 00:00:47;;;;;;;;;;;3.00;1.00;;;;;;4992024;28;19947;-70
2021/11/09 00:03:14;;;;;;;;;;;2.90;1.00;;;;;;4991571;28;19914;-70
2021/11/09 00:06:26;;;;;;;;;;;2.90;1.00;;;;;;4991957;28;19984;-69
2021/11/09 00:08:36;;;;;;;;;;;2.80;1.00;;;;;;4987085;28;20612;-68
2021/11/09 00:11:02;;;;;;;;;;;2.80;1.00;;;;;;4992240;28;19996;-69
2021/11/09 00:13:28;;;;;;;;;;;2.80;1.00;;;;;;4991406;28;20474;-70
2021/11/09 00:15:53;;;;;;;;;;;2.80;1.00;;;;;;4992520;28;19933;-70
2021/11/09 00:18:20;;;;;;;;;;;2.80;1.00;;;;;;4991894;28;19910;-69
2021/11/09 00:20:45;;;;;;;;;;;2.80;1.00;;;;;;4990358;28;20339;-69
2021/11/09 00:23:11;;;;;;;;;;;2.80;1.00;;;;;;4991508;28;19917;-70
2021/11/09 00:25:37;;;;;;;;;;;2.80;1.00;;;;;;4991664;28;20102;-69
2021/11/09 00:28:04;;;;;;;;;;;2.70;1.00;;;;;;4991540;28;19937;-69
2021/11/09 00:30:30;;;;;;;;;;;2.70;1.00;;;;;;4991730;28;19956;-69
2021/11/09 00:32:56;;;;;;;;;;;2.70;1.00;;;;;;4990577;28;19909;-69
2021/11/09 00:35:23;;;;;;;;;;;2.70;1.00;;;;;;4991131;28;19933;-69
2021/11/09 00:37:49;;;;;;;;;;;2.70;1.00;;;;;;4992325;28;20200;-69
2021/11/09 00:40:16;;;;;;;;;;;2.70;1.00;;;;;;4991603;28;19910;-69
2021/11/09 00:42:42;;;;;;;;;;;2.70;1.00;;;;;;4990662;28;20282;-69
2021/11/09 00:45:09;;;;;;;;;;;2.60;1.00;;;;;;4990506;28;19914;-69
2021/11/09 00:47:35;;;;;;;;;;;2.60;1.00;;;;;;4991377;28;19909;-68
2021/11/09 00:50:01;;;;;;;;;;;2.60;1.00;;;;;;4991635;28;19935;-70
2021/11/09 00:52:26;;;;;;;;;;;2.60;1.00;;;;;;4990174;28;20020;-69
2021/11/09 00:54:52;;;;;;;;;;;2.60;1.00;;;;;;4991458;28;19910;-69
2021/11/09 00:57:18;;;;;;;;;;;2.60;1.00;;;;;;4990517;28;19987;-69
2021/11/09 00:59:43;;;;;;;;;;;2.60;1.00;;;;;;4991645;28;19961;-70
2021/11/09 01:02:09;;;;;;;;;;;2.50;1.00;;;;;;4987884;28;19918;-68
2021/11/09 01:04:35;;;;;;;;;;;2.50;1.00;;;;;;4991522;28;19945;-70
2021/11/09 01:07:01;;;;;;;;;;;2.50;1.00;;;;;;4990571;28;19917;-70
2021/11/09 01:09:26;;;;;;;;;;;2.50;1.00;;;;;;4991146;28;19913;-69
2021/11/09 01:11:53;;;;;;;;;;;2.40;1.00;;;;;;4989214;28;19992;-69
2021/11/09 01:14:19;;;;;;;;;;;2.40;1.00;;;;;;4990455;28;20328;-70
2021/11/09 01:16:45;;;;;;;;;;;2.40;1.00;;;;;;4990102;28;19917;-69
2021/11/09 01:19:10;;;;;;;;;;;2.40;1.00;;;;;;4990954;28;19914;-69
2021/11/09 01:21:37;;;;;;;;;;;2.40;1.00;;;;;;4989045;28;20007;-70
2021/11/09 01:24:03;;;;;;;;;;;2.40;1.00;;;;;;4989739;28;20369;-69
2021/11/09 01:26:28;;;;;;;;;;;2.40;1.00;;;;;;4990464;28;20274;-69
2021/11/09 01:28:56;;;;;;;;;;;2.30;1.00;;;;;;4990474;28;19910;-68
2021/11/09 01:31:22;;;;;;;;;;;2.30;1.00;;;;;;4990022;28;20414;-69
2021/11/09 01:33:47;;;;;;;;;;;2.30;1.00;;;;;;4989955;28;19910;-69
2021/11/09 01:36:13;;;;;;;;;;;2.30;1.00;;;;;;4989756;28;19925;-70
2021/11/09 01:38:39;;;;;;;;;;;2.30;1.00;;;;;;4990559;28;19910;-70
2021/11/09 01:41:08;;;;;;;;;;;2.30;1.00;;;;;;4990039;28;20009;-71
2021/11/09 01:43:34;;;;;;;;;;;2.20;1.00;;;;;;4989480;28;19921;-71
2021/11/09 01:45:59;;;;;;;;;;;2.20;1.00;;;;;;4990339;28;19914;-70
2021/11/09 01:48:25;;;;;;;;;;;2.30;1.00;;;;;;4990008;28;19916;-71
2021/11/09 01:50:53;;;;;;;;;;;2.30;1.00;;;;;;4990147;28;20008;-68
2021/11/09 01:53:19;;;;;;;;;;;2.20;1.00;;;;;;4990215;28;19913;-69
2021/11/09 01:55:44;;;;;;;;;;;2.20;1.00;;;;;;4990342;28;19988;-69
2021/11/09 01:58:11;;;;;;;;;;;2.10;1.00;;;;;;4989693;28;19910;-70
2021/11/09 02:00:42;;;;;;;;;;;2.20;1.00;;;;;;4990053;28;20015;-69
2021/11/09 02:03:08;;;;;;;;;;;2.20;1.00;;;;;;4989133;28;19918;-69
2021/11/09 02:05:34;;;;;;;;;;;2.20;1.00;;;;;;4989863;28;20268;-70
2021/11/09 02:08:00;;;;;;;;;;;2.10;1.00;;;;;;4990552;28;20022;-69
2021/11/09 02:10:31;;;;;;;;;;;2.10;1.00;;;;;;4989671;28;19910;-69
2021/11/09 02:12:57;;;;;;;;;;;2.00;1.00;;;;;;4989138;28;20089;-69
2021/11/09 02:15:23;;;;;;;;;;;2.00;1.00;;;;;;4990196;28;20008;-69
2021/11/09 02:17:49;;;;;;;;;;;2.10;1.00;;;;;;4988535;28;20005;-69
2021/11/09 02:20:18;;;;;;;;;;;2.00;1.00;;;;;;4990561;28;19909;-69
2021/11/09 02:22:43;;;;;;;;;;;2.00;1.00;;;;;;4987163;28;20323;-69
2021/11/09 02:25:11;;;;;;;;;;;2.00;1.00;;;;;;4990303;28;20008;-70
2021/11/09 02:27:37;;;;;;;;;;;2.00;1.00;;;;;;4989420;28;19918;-69
2021/11/09 02:30:04;;;;;;;;;;;2.00;1.00;;;;;;4990446;28;19913;-69
2021/11/09 02:32:29;;;;;;;;;;;1.90;1.00;;;;;;4987972;28;19933;-69
2021/11/09 02:34:55;;;;;;;;;;;1.90;1.00;;;;;;4989374;28;20394;-70
2021/11/09 02:37:21;;;;;;;;;;;1.90;1.00;;;;;;4989039;28;19913;-69
2021/11/09 02:39:46;;;;;;;;;;;1.80;1.00;;;;;;4989763;28;20338;-70
2021/11/09 02:42:15;;;;;;;;;;;1.80;1.00;;;;;;4987744;28;19910;-70
2021/11/09 02:44:49;;;;;;;;;;;1.80;1.00;;;;;;4989802;28;19952;-69
2021/11/09 02:47:16;;;;;;;;;;;1.80;1.00;;;;;;4989078;28;19910;-69
2021/11/09 02:50:06;;;;;;;;;;;1.80;1.00;;;;;;4988369;28;20008;-71
2021/11/09 02:52:33;;;;;;;;;;;1.80;1.00;;;;;;4988466;28;20028;-69
2021/11/09 02:55:06;;;;;;;;;;;1.80;1.00;;;;;;4987935;28;19929;-69
2021/11/09 03:00:15;;;;;;;;;;;1.80;1.00;;;;;;4989630;28;20055;-69
2021/11/09 03:02:47;;;;;;;;;;;1.70;1.00;;;;;;4987536;28;19924;-69
2021/11/09 03:05:42;;;;;;;;;;;1.70;1.00;;;;;;4989345;28;20166;-71
2021/11/09 03:08:13;;;;;;;;;;;1.70;1.00;;;;;;4989367;28;19913;-71
2021/11/09 03:10:41;;;;;;;;;;;1.80;1.00;;;;;;4989090;28;19913;-70
2021/11/09 03:13:07;;;;;;;;;;;1.80;1.00;;;;;;4988660;28;19917;-71
2021/11/09 03:15:34;;;;;;;;;;;1.80;1.00;;;;;;4989472;28;19916;-71
2021/11/09 03:18:04;;;;;;;;;;;1.70;1.00;;;;;;4989145;28;19930;-71
2021/11/09 03:20:35;;;;;;;;;;;1.70;1.00;;;;;;4988970;28;19910;-71
2021/11/09 03:47:04;;;;;;;;;;;1.70;1.00;;;;;;4991736;28;20295;-70
2021/11/09 03:49:32;;;;;;;;;;;1.70;1.00;;;;;;4993053;28;19921;-71
2021/11/09 03:51:59;;;;;;;;;;;1.70;1.00;;;;;;4991304;28;19922;-70
2021/11/09 03:54:27;;;;;;;;;;;1.70;1.00;;;;;;4992748;28;19910;-71
2021/11/09 03:57:05;;;;;;;;;;;1.70;1.00;;;;;;4992055;28;19917;-71
2021/11/09 04:07:08;;;;;;;;;;;1.50;1.00;;;;;;4991922;28;19956;-72
2021/11/09 04:09:46;;;;;;;;;;;1.50;1.00;;;;;;4992763;28;19914;-71
2021/11/09 04:15:10;;;;;;;;;;;1.50;1.00;;;;;;4992488;28;19933;-71
2021/11/09 04:20:11;;;;;;;;;;;1.50;1.00;;;;;;4992512;28;19921;-70
2021/11/09 04:25:45;;;;;;;;;;;1.50;1.00;;;;;;4991253;28;19918;-71
2021/11/09 05:10:37;;;;;;;;;;;1.50;1.00;;;;;;4990939;28;19909;-71
2021/11/09 05:13:02;;;;;;;;;;;1.40;1.00;;;;;;4990096;28;19921;-70
2021/11/09 05:15:28;;;;;;;;;;;1.40;1.00;;;;;;4990888;28;20422;-70
2021/11/09 05:17:54;;;;;;;;;;;1.30;1.00;;;;;;4991160;28;19935;-71
2021/11/09 05:20:20;;;;;;;;;;;1.30;1.00;;;;;;4991651;28;19940;-70
2021/11/09 05:22:45;;;;;;;;;;;1.30;1.00;;;;;;4988594;28;20013;-71
2021/11/09 05:25:11;;;;;;;;;;;1.40;1.00;;;;;;4990935;28;19910;-69
2021/11/09 05:27:37;;;;;;;;;;;1.40;1.00;;;;;;4990301;28;20032;-69
2021/11/09 05:30:03;;;;;;;;;;;1.40;1.00;;;;;;4986856;28;19913;-69
2021/11/09 05:32:28;;;;;;;;;;;1.50;1.00;;;;;;4988495;28;19918;-70
2021/11/09 05:34:54;;;;;;;;;;;1.50;1.00;;;;;;4989855;28;19913;-70
2021/11/09 05:37:23;;;;;;;;;;;1.50;1.00;;;;;;4989564;28;19914;-70
2021/11/09 05:39:54;;;;;;;;;;;1.50;1.00;;;;;;4990479;28;19910;-69
2021/11/09 05:42:20;;;;;;;;;;;1.50;1.00;;;;;;4992851;28;19909;-69
2021/11/09 05:44:46;;;;;;;;;;;1.50;1.00;;;;;;4990857;28;19913;-70
2021/11/09 05:47:12;;;;;;;;;;;1.40;1.00;;;;;;4989987;28;20470;-70
2021/11/09 05:49:38;;;;;;;;;;;1.40;1.00;;;;;;4990473;28;19933;-68
2021/11/09 05:52:04;;;;;;;;;;;1.40;1.00;;;;;;4988903;28;19929;-70
2021/11/09 05:54:30;;;;;;;;;;;1.50;1.00;;;;;;4991153;28;19909;-71
2021/11/09 05:56:55;;;;;;;;;;;1.40;1.00;;;;;;4989138;28;20247;-69
2021/11/09 05:59:21;;;;;;;;;;;1.40;1.00;;;;;;4989907;28;19917;-69
2021/11/09 06:01:47;;;;;;;;;;;1.30;1.00;;;;;;4987583;28;19945;-72
2021/11/09 06:04:13;;;;;;;;;;;1.30;1.00;;;;;;4989858;28;20371;-72
2021/11/09 06:06:39;;;;;;;;;;;1.30;1.00;;;;;;4971508;28;19910;-71
2021/11/09 06:09:04;;;;;;;;;;;1.30;1.00;;;;;;4975587;28;19917;-71
2021/11/09 06:11:30;;;;;;;;;;;1.40;1.00;;;;;;4986764;28;19984;-72
2021/11/09 06:13:56;;;;;;;;;;;1.40;1.00;;;;;;4986051;28;19969;-71
2021/11/09 06:16:22;;;;;;;;;;;1.50;1.00;;;;;;4986758;28;19944;-70
2021/11/09 06:18:47;;;;;;;;;;;1.50;1.00;;;;;;4986971;28;19940;-71
2021/11/09 06:21:13;;;;;;;;;;;1.60;1.00;;;;;;4981073;28;19918;-71
2021/11/09 06:23:39;;;;;;;;;;;1.60;1.00;;;;;;4985019;28;19914;-69
2021/11/09 06:26:04;;;;;;;;;;;1.70;1.00;;;;;;4986150;28;19914;-71
2021/11/09 06:28:30;;;;;;;;;;;1.80;1.00;;;;;;4986621;28;20013;-69
2021/11/09 06:30:56;;;;;;;;;;;1.90;1.00;;;;;;4983772;28;19921;-70
2021/11/09 06:33:22;;;;;;;;;;;2.20;1.00;;;;;;4985851;28;20220;-70
2021/11/09 06:35:48;;;;;;;;;;;2.70;1.00;;;;;;4986349;28;19964;-69
2021/11/09 06:38:13;;;;;;;;;;;3.30;1.00;;;;;;4985942;28;19949;-68
2021/11/09 06:40:39;;;;;;;;;;;3.90;1.00;;;;;;4986436;28;19925;-69
2021/11/09 06:43:05;;;;;;;;;;;4.60;1.00;;;;;;4985938;28;19934;-68
2021/11/09 06:45:30;;;;;;;;;;;5.30;1.00;;;;;;4986560;28;20262;-69
2021/11/09 06:47:56;;;;;;;;;;;6.10;1.00;;;;;;4986299;28;19918;-68
2021/11/09 06:50:22;;;;;;;;;;;6.90;1.00;;;;;;4986515;28;19920;-70
2021/11/09 06:52:48;;;;;;;;;;;7.50;1.00;;;;;;4985566;28;19917;-70
2021/11/09 06:55:17;;;;;;;;;;;8.30;99.90;;;;;;4986614;28;20712;-70
2021/11/09 06:57:43;;;;;;;;;;;9.10;1.00;;;;;;4984901;28;19937;-69
2021/11/09 07:00:11;;;;;;;;;;;9.90;1.00;;;;;;4986255;28;19963;-68
2021/11/09 07:02:37;;;;;;;;;;;10.50;1.00;;;;;;4984640;28;20000;-69
2021/11/09 07:05:03;;;;;;;;;;;11.30;99.90;;;;;;5009083;23;19936;-69
2021/11/09 07:07:29;;;;;;;;;;;12.40;99.90;;;;;;5005737;28;19910;-68
2021/11/09 07:09:54;;;;;;;;;;;13.50;99.90;;;;;;5010297;28;19940;-67
2021/11/09 07:12:20;;;;;;;;;;;14.40;99.90;;;;;;5008795;28;19918;-68
2021/11/09 07:14:46;;;;;;;;;;;14.80;99.90;;;;;;5010893;28;19928;-69
2021/11/09 07:17:12;;;;;;;;;;;15.70;99.90;;;;;;5009358;28;20043;-68
2021/11/09 07:19:38;;;;;;;;;;;16.50;99.90;;;;;;5010226;28;20343;-68
2021/11/09 07:22:04;;;;;;;;;;;17.00;99.90;;;;;;5008971;28;19944;-68
2021/11/09 07:24:31;;;;;;;;;;;17.40;99.90;;;;;;5008956;28;19925;-69
2021/11/09 07:26:57;;;;;;;;;;;17.50;99.90;;;;;;5008329;28;19945;-67
2021/11/09 07:29:23;;;;;;;;;;;18.00;99.90;;;;;;5009788;28;19961;-69
2021/11/09 07:31:50;;;;;;;;;;;18.00;99.90;;;;;;5008421;28;19914;-69
2021/11/09 07:34:15;;;;;;;;;;;18.00;99.90;;;;;;5011714;28;20004;-68
2021/11/09 07:36:41;;;;;;;;;;;18.10;99.90;;;;;;5011986;28;20345;-69
2021/11/09 07:39:07;;;;;;;;;;;17.80;99.90;;;;;;5012618;28;19925;-69
2021/11/09 07:41:33;;;;;;;;;;;17.30;99.90;;;;;;4994167;28;19910;-69
2021/11/09 07:44:02;;;;;;;;;;;17.40;99.90;;;;;;5011803;28;20285;-70
2021/11/09 07:46:28;;;;;;;;;;;17.20;99.90;;;;;;5011160;28;19917;-69
2021/11/09 07:48:54;;;;;;;;;;;18.30;99.90;;;;;;5012734;28;20616;-69
2021/11/09 07:51:21;;;;;;;;;;;19.50;99.90;;;;;;5012003;28;20120;-69
2021/11/09 07:53:48;;;;;;;;;;;20.20;99.90;;;;;;5011139;28;19913;-69
2021/11/09 07:56:18;;;;;;;;;;;20.40;99.90;;;;;;5011878;28;19915;-69
2021/11/09 08:02:04;;;;;;;;;;;22.00;99.90;;;;;;5012120;28;20054;-69
2021/11/09 08:04:31;;;;;;;;;;;22.30;99.90;;;;;;5008497;28;20009;-70
2021/11/09 08:07:08;;;;;;;;;;;22.70;99.90;;;;;;5011279;28;19921;-70
2021/11/09 08:09:35;;;;;;;;;;;23.60;99.90;;;;;;5012095;28;19916;-69
2021/11/09 08:12:02;;;;;;;;;;;24.30;99.90;;;;;;5010592;28;19925;-68
2021/11/09 08:14:28;;;;;;;;;;;24.60;99.90;;;;;;5011955;28;19916;-68
2021/11/09 08:16:54;;;;;;;;;;;24.70;99.90;;;;;;5010846;28;19913;-69
2021/11/09 08:19:19;;;;;;;;;;;24.90;99.90;;;;;;5011311;28;19933;-69
2021/11/09 08:21:46;;;;;;;;;;;25.60;99.90;;;;;;5010032;28;19913;-69
2021/11/09 08:24:16;;;;;;;;;;;25.80;99.90;;;;;;5011224;28;19973;-69
2021/11/09 08:26:42;;;;;;;;;;;25.30;99.90;;;;;;5010667;28;20381;-70
2021/11/09 08:29:07;;;;;;;;;;;25.60;99.90;;;;;;5011036;28;19909;-69
2021/11/09 08:31:35;;;;;;;;;;;25.10;99.90;;;;;;5010696;28;19925;-68
2021/11/09 08:34:02;;;;;;;;;;;25.40;99.90;;;;;;5010605;28;20023;-67
2021/11/09 08:36:31;;;;;;;;;;;25.50;99.90;;;;;;5010432;28;19913;-70
2021/11/09 08:38:58;;;;;;;;;;;25.80;99.90;;;;;;5010801;28;19909;-69
2021/11/09 08:41:27;;;;;;;;;;;25.70;99.90;;;;;;5010423;28;19964;-68
2021/11/09 08:44:05;;;;;;;;;;;25.60;99.90;;;;;;5010002;28;20338;-70
2021/11/09 08:46:36;;;;;;;;;;;26.00;99.90;;;;;;5010206;28;20400;-69
2021/11/09 08:49:03;;;;;;;;;;;26.40;99.00;;;;;;5010651;28;19976;-69
2021/11/09 08:51:29;;;;;;;;;;;26.50;95.50;;;;;;5010388;28;19913;-69
2021/11/09 08:54:00;;;;;;;;;;;25.80;91.00;;;;;;5010079;28;19916;-69
2021/11/09 09:04:20;;;;;;;;;;;23.40;64.10;;;;;;5010060;28;19913;-69
2021/11/09 09:06:46;;;;;;;;;;;23.80;62.80;;;;;;5010355;28;19918;-69
2021/11/09 09:09:13;;;;;;;;;;;24.90;61.70;;;;;;5010297;28;20015;-68
2021/11/09 09:11:38;;;;;;;;;;;24.30;55.40;;;;;;5010017;28;20274;-70
2021/11/09 09:14:04;;;;;;;;;;;23.60;51.10;;;;;;5009551;28;19922;-68
2021/11/09 09:16:31;;;;;;;;;;;22.80;47.60;;;;;;5010218;28;20400;-69
2021/11/09 09:19:00;;;;;;;;;;;23.20;46.90;;;;;;5011245;28;19910;-68
2021/11/09 09:21:33;;;;;;;;;;;21.90;41.40;;;;;;5010086;28;19970;-68
2021/11/09 09:24:04;;;;;;;;;;;22.40;42.40;;;;;;5009976;28;19913;-68
2021/11/09 09:26:38;;;;;;;;;;;22.50;41.10;;;;;;5009044;28;20294;-68
2021/11/09 09:29:28;;;;;;;;;;;21.90;37.90;;;;;;5009613;28;19913;-69
2021/11/09 09:52:10;;;;;;;;;;;20.70;30.50;;;;;;5009412;28;20004;-68
2021/11/09 09:56:42;;;;;;;;;;;24.70;31.80;;;;;;4989550;28;19914;-69
2021/11/09 09:59:08;;;;;;;;;;;24.70;29.30;;;;;;4990176;28;19968;-69
2021/11/09 10:01:34;;;;;;;;;;;24.60;27.70;;;;;;4989480;28;20422;-69
2021/11/09 10:03:59;;;;;;;;;;;24.00;25.30;;;;;;4989558;28;19914;-69
2021/11/09 10:06:41;;;;;;;;;;;22.20;21.50;;;;;;4989729;28;20612;-68
2021/11/09 10:09:07;;;;;;;;;;;20.50;17.50;;;;;;4990449;28;19910;-68
2021/11/09 10:11:34;;;;;;;;;;;19.90;27.10;;;;;;4989036;28;19917;-69
2021/11/09 10:14:03;;;;;;;;;;;19.30;16.10;;;;;;4989572;28;19936;-69
2021/11/09 10:16:29;;;;;;;;;;;18.80;16.10;;;;;;4989660;28;19921;-68
2021/11/09 10:18:54;;;;;;;;;;;19.30;17.70;;;;;;4990465;28;19910;-68
2021/11/09 10:21:20;;;;;;;;;;;18.60;16.40;;;;;;4989409;28;20298;-67
2021/11/09 10:23:46;;;;;;;;;;;17.90;15.20;;;;;;5000972;28;19929;-68
2021/11/09 10:26:16;;;;;;;;;;;17.50;15.10;;;;;;5009073;28;19924;-68
2021/11/09 10:28:43;;;;;;;;;;;17.50;16.70;;;;;;5009544;28;20011;-68
2021/11/09 10:31:10;;;;;;;;;;;17.00;15.40;;;;;;5009350;28;20015;-70
2021/11/09 10:33:45;;;;;;;;;;;16.10;15.40;;;;;;5008462;28;20323;-69
2021/11/09 10:36:26;;;;;;;;;;;16.20;16.40;;;;;;5009146;28;20275;-68
2021/11/09 10:38:53;;;;;;;;;;;16.50;18.30;;;;;;5009870;28;19909;-69
2021/11/09 10:41:19;;;;;;;;;;;16.40;18.30;;;;;;5009477;28;20014;-69
2021/11/09 10:43:44;;;;;;;;;;;16.40;19.90;;;;;;5010168;28;20653;-69
2021/11/09 10:46:26;;;;;;;;;;;16.20;19.10;;;;;;5014373;28;19913;-66
2021/11/09 10:48:52;;;;;;;;;;;16.20;21.00;;;;;;5014089;28;20246;-69
2021/11/09 10:51:17;;;;;;;;;;;16.10;20.70;;;;;;5013831;28;19921;-68
2021/11/09 10:53:51;;;;;;;;;;;16.30;22.20;;;;;;5012794;28;19913;-68
2021/11/09 11:04:13;;;;;;;;;;;15.30;22.10;;;;;;5012473;28;19913;-68
2021/11/09 11:06:41;;;;;;;;;;;15.20;23.30;;;;;;5012522;28;20016;-69
2021/11/09 11:09:07;;;;;;;;;;;15.30;24.50;;;;;;5013499;28;19913;-68
2021/11/09 11:11:34;;;;;;;;;;;14.90;23.60;;;;;;5012714;28;20024;-68
2021/11/09 11:14:07;;;;;;;;;;;14.90;24.90;;;;;;5011893;28;20142;-68
2021/11/09 11:16:42;;;;;;;;;;;14.60;24.80;;;;;;5012508;28;20009;-67
2021/11/09 11:19:08;;;;;;;;;;;14.80;27.20;;;;;;5012898;28;19916;-67
2021/11/09 11:21:33;;;;;;;;;;;15.00;28.20;;;;;;5012506;28;19913;-68
2021/11/09 11:23:59;;;;;;;;;;;15.00;28.90;;;;;;5011677;28;19920;-67
2021/11/09 11:26:24;;;;;;;;;;;14.70;28.50;;;;;;5012475;28;19985;-68
2021/11/09 11:28:51;;;;;;;;;;;14.40;28.30;;;;;;5012346;28;19933;-68
2021/11/09 11:31:17;;;;;;;;;;;13.70;27.90;;;;;;5012155;28;19953;-66
2021/11/09 11:33:43;;;;;;;;;;;13.70;29.60;;;;;;5011700;28;19913;-66
2021/11/09 11:36:08;;;;;;;;;;;13.90;31.20;;;;;;5012121;28;19914;-69
2021/11/09 11:38:36;;;;;;;;;;;14.10;32.60;;;;;;5012578;28;20032;-67
2021/11/09 11:41:03;;;;;;;;;;;13.90;32.90;;;;;;5012111;28;19916;-68
2021/11/09 11:43:47;;;;;;;;;;;13.90;46.40;;;;;;5011339;28;20071;-68
2021/11/09 11:46:36;;;;;;;;;;;14.10;35.20;;;;;;5011754;28;19920;-68
2021/11/09 11:49:01;;;;;;;;;;;14.10;36.30;;;;;;5004106;28;19922;-68
2021/11/09 11:51:27;;;;;;;;;;;14.10;34.50;;;;;;5011422;28;19918;-69
2021/11/09 11:53:56;;;;;;;;;;;13.60;33.00;;;;;;4993175;28;19910;-69
2021/11/09 11:56:39;;;;;;;;;;;13.10;32.40;;;;;;5010899;28;19914;-68
2021/11/09 11:59:05;;;;;;;;;;;13.00;32.80;;;;;;5011603;28;19910;-68
2021/11/09 12:01:40;;;;;;;;;;;12.80;34.40;;;;;;5011932;28;19918;-67
2021/11/09 12:04:09;;;;;;;;;;;12.80;34.30;;;;;;5011232;28;19909;-66
2021/11/09 12:06:48;;;;;;;;;;;12.80;36.00;;;;;;5012223;28;19925;-69
2021/11/09 12:09:27;;;;;;;;;;;13.10;37.00;;;;;;5012552;28;20354;-66
2021/11/09 12:11:52;;;;;;;;;;;13.10;37.20;;;;;;5010684;28;19996;-68
2021/11/09 12:14:18;;;;;;;;;;;12.90;37.80;;;;;;5011169;28;20437;-67
2021/11/09 12:16:57;;;;;;;;;;;12.70;37.20;;;;;;5011084;28;19909;-68
2021/11/09 12:19:35;;;;;;;;;;;12.70;38.80;;;;;;5012063;28;19996;-68
2021/11/09 12:22:11;;;;;;;;;;;12.60;38.20;;;;;;5010532;28;20013;-69
2021/11/09 12:24:58;;;;;;;;;;;12.30;38.70;;;;;;5011368;28;19921;-69
2021/11/09 12:27:29;;;;;;;;;;;12.40;40.70;;;;;;4992878;28;19909;-69
2021/11/09 12:29:56;;;;;;;;;;;12.70;42.00;;;;;;5012010;28;19913;-67
2021/11/09 12:32:24;;;;;;;;;;;12.50;41.80;;;;;;5010018;28;20274;-67
2021/11/09 12:35:04;;;;;;;;;;;12.30;41.50;;;;;;5011949;28;19960;-68
2021/11/09 12:37:31;;;;;;;;;;;11.90;40.80;;;;;;5011159;28;20741;-67
2021/11/09 12:40:20;;;;;;;;;;;11.80;41.90;;;;;;4994158;28;19909;-68
2021/11/09 12:43:04;;;;;;;;;;;11.90;43.40;;;;;;4981931;28;20076;-67
2021/11/09 12:45:30;;;;;;;;;;;11.90;44.70;;;;;;5011209;28;19948;-68
2021/11/09 12:48:06;;;;;;;;;;;11.90;45.30;;;;;;5010968;28;20335;-68
2021/11/09 12:50:33;;;;;;;;;;;11.80;46.30;;;;;;5010469;28;20273;-67
2021/11/09 12:53:12;;;;;;;;;;;11.90;46.60;;;;;;5010529;28;19917;-68
2021/11/09 12:55:38;;;;;;;;;;;11.90;47.90;;;;;;5011018;28;20002;-68
2021/11/09 12:58:17;;;;;;;;;;;11.80;48.10;;;;;;5010527;28;19910;-67
2021/11/09 13:00:49;;;;;;;;;;;11.70;48.50;;;;;;5011178;28;19913;-69
2021/11/09 13:03:22;;;;;;;;;;;11.60;49.00;;;;;;4992687;28;19974;-68
2021/11/09 13:05:54;;;;;;;;;;;11.50;49.70;;;;;;5021052;23;19930;-70
2021/11/09 13:08:27;;;;;;;;;;;11.40;50.80;;;;;;5010657;28;20243;-69
2021/11/09 13:10:53;;;;;;;;;;;11.20;50.60;;;;;;5010519;28;19917;-70
2021/11/09 13:13:20;;;;;;;;;;;11.10;51.50;;;;;;5009835;28;19984;-69
2021/11/09 13:15:46;;;;;;;;;;;11.20;53.90;;;;;;5010750;28;20630;-69
2021/11/09 13:18:12;;;;;;;;;;;11.00;53.00;;;;;;5008710;28;20010;-69
2021/11/09 13:20:48;;;;;;;;;;;10.80;53.80;;;;;;5009328;28;19913;-69
2021/11/09 13:23:16;;;;;;;;;;;10.90;55.00;;;;;;5004579;28;20262;-68
2021/11/09 13:25:41;;;;;;;;;;;10.90;56.50;;;;;;5009834;28;19917;-70
2021/11/09 13:28:13;;;;;;;;;;;10.90;76.20;;;;;;5004203;28;19909;-69
2021/11/09 13:30:40;;;;;;;;;;;10.80;58.90;;;;;;5002160;28;20370;-69
2021/11/09 13:33:06;;;;;;;;;;;10.80;59.60;;;;;;4999938;28;19920;-69
2021/11/09 13:35:33;;;;;;;;;;;10.80;61.10;;;;;;5000331;28;19910;-69
2021/11/09 13:38:06;;;;;;;;;;;10.80;62.50;;;;;;5000892;28;19959;-69
2021/11/09 13:40:32;;;;;;;;;;;10.70;62.50;;;;;;5000672;28;20022;-67
2021/11/09 13:43:02;;;;;;;;;;;10.60;64.10;;;;;;4999450;28;19977;-71
2021/11/09 13:45:28;;;;;;;;;;;10.60;66.30;;;;;;4998664;28;19917;-70
2021/11/09 13:47:54;;;;;;;;;;;10.40;67.90;;;;;;4999549;28;20342;-70
2021/11/09 13:50:19;;;;;;;;;;;10.20;68.90;;;;;;5000185;28;19910;-70
2021/11/09 13:52:47;;;;;;;;;;;10.20;72.60;;;;;;4996566;28;20009;-70
2021/11/09 13:55:13;;;;;;;;;;;10.20;74.50;;;;;;4999641;28;19910;-70
2021/11/09 13:57:39;;;;;;;;;;;10.10;76.20;;;;;;4997573;28;19985;-70
2021/11/09 14:00:17;;;;;;;;;;;10.00;76.90;;;;;;5003280;28;20069;-69
2021/11/09 14:02:47;;;;;;;;;;;10.00;80.90;;;;;;4999859;28;20433;-71
2021/11/09 14:08:05;;;;;;;;;;;9.80;84.00;;;;;;5008967;28;20361;-70
2021/11/09 14:13:25;;;;;;;;;;;9.70;87.10;;;;;;4998088;28;19918;-69
2021/11/09 14:18:18;;;;;;;;;;;9.60;90.20;;;;;;5008414;28;20028;-70
2021/11/09 14:20:57;;;;;;;;;;;9.60;91.70;;;;;;5008720;28;20381;-69
2021/11/09 14:23:32;;;;;;;;;;;9.60;92.00;;;;;;5008387;28;19924;-70
2021/11/09 14:25:59;;;;;;;;;;;9.60;93.30;;;;;;5008865;28;19913;-70
2021/11/09 14:28:32;;;;;;;;;;;9.50;93.40;;;;;;5008554;28;20393;-69
2021/11/09 14:31:21;;;;;;;;;;;9.40;94.60;;;;;;5009092;28;19992;-70
2021/11/09 14:33:49;;;;;;;;;;;9.40;97.20;;;;;;5008052;28;20023;-70
2021/11/09 14:36:24;;;;;;;;;;;9.40;97.20;;;;;;5007545;28;19948;-69
2021/11/09 14:39:04;;;;;;;;;;;9.30;96.40;;;;;;5008932;28;19910;-70
2021/11/09 14:41:37;;;;;;;;;;;9.20;94.40;;;;;;5008160;28;19916;-68
2021/11/09 14:44:03;;;;;;;;;;;9.10;94.10;;;;;;5007880;28;19914;-70
2021/11/09 14:46:36;;;;;;;;;;;9.10;95.30;;;;;;5009002;28;20380;-70
2021/11/09 14:49:05;;;;;;;;;;;9.00;97.30;;;;;;5009173;28;19914;-71
2021/11/09 14:51:32;;;;;;;;;;;9.00;99.90;;;;;;5008020;28;20434;-71
2021/11/09 14:54:12;;;;;;;;;;;9.00;99.90;;;;;;5008621;28;19910;-71
2021/11/09 14:56:39;;;;;;;;;;;9.00;99.90;;;;;;5008245;28;19909;-70
2021/11/09 14:59:06;;;;;;;;;;;9.00;99.90;;;;;;5008868;28;19952;-70
2021/11/09 15:01:58;;;;;;;;;;;9.00;99.90;;;;;;5008292;28;19914;-70
2021/11/09 15:07:10;;;;;;;;;;;8.90;99.90;;;;;;5008163;28;20226;-71
2021/11/09 15:10:04;;;;;;;;;;;8.80;99.90;;;;;;5009146;28;19909;-70
2021/11/09 15:28:24;;;;;;;;;;;8.20;99.90;;;;;;5007969;28;20107;-71
2021/11/09 15:30:59;;;;;;;;;;;8.20;99.90;;;;;;5011878;28;19909;-71
2021/11/09 15:33:31;;;;;;;;;;;8.10;99.90;;;;;;5011089;28;19964;-71
2021/11/09 15:38:36;;;;;;;;;;;7.90;99.90;;;;;;5012385;28;19917;-71
2021/11/09 15:41:01;;;;;;;;;;;7.80;99.90;;;;;;5011768;28;19936;-71
2021/11/09 15:43:29;;;;;;;;;;;7.80;99.90;;;;;;5010518;28;19910;-71
2021/11/09 15:45:55;;;;;;;;;;;7.70;99.90;;;;;;5012330;28;19910;-71
2021/11/09 15:48:20;;;;;;;;;;;7.70;99.90;;;;;;5011882;28;20358;-71
2021/11/09 15:50:46;;;;;;;;;;;7.70;99.90;;;;;;5011778;28;20075;-71
2021/11/09 15:53:13;;;;;;;;;;;7.60;99.90;;;;;;5010809;28;19920;-70
2021/11/09 15:55:38;;;;;;;;;;;7.60;99.90;;;;;;5011257;28;20366;-71
2021/11/09 15:58:04;;;;;;;;;;;7.50;99.90;;;;;;5011272;28;20011;-70
2021/11/09 16:00:30;;;;;;;;;;;7.40;99.90;;;;;;5012080;28;19913;-71
2021/11/09 16:02:55;;;;;;;;;;;7.40;99.90;;;;;;5010591;28;19909;-71
2021/11/09 16:05:21;;;;;;;;;;;7.30;99.90;;;;;;5011658;28;19913;-71
2021/11/09 16:07:49;;;;;;;;;;;7.30;99.90;;;;;;5010853;28;19913;-71
2021/11/09 16:10:17;;;;;;;;;;;7.20;99.90;;;;;;5011615;28;19967;-71
2021/11/09 16:12:43;;;;;;;;;;;7.20;99.90;;;;;;4992397;28;20239;-71
2021/11/09 16:15:09;;;;;;;;;;;7.10;99.90;;;;;;5011835;28;19920;-70
2021/11/09 16:17:37;;;;;;;;;;;7.10;99.90;;;;;;5010505;28;19917;-71
2021/11/09 16:20:06;;;;;;;;;;;7.10;99.90;;;;;;5011609;28;20386;-71
2021/11/09 16:22:34;;;;;;;;;;;7.10;99.90;;;;;;5009966;28;19948;-72
2021/11/09 16:25:00;;;;;;;;;;;7.10;1.00;;;;;;5011567;28;20425;-71
2021/11/09 16:27:26;;;;;;;;;;;7.00;1.00;;;;;;5010471;28;19918;-72
2021/11/09 16:29:55;;;;;;;;;;;7.00;1.00;;;;;;5011396;28;19910;-72
2021/11/09 16:32:21;;;;;;;;;;;6.90;1.00;;;;;;5009803;28;20004;-71
2021/11/09 16:34:49;;;;;;;;;;;6.90;1.00;;;;;;5011991;28;20334;-73
2021/11/09 16:37:15;;;;;;;;;;;6.80;1.00;;;;;;5010563;28;20422;-70
2021/11/09 16:39:53;;;;;;;;;;;6.80;1.00;;;;;;5010908;28;20331;-71
2021/11/09 16:42:19;;;;;;;;;;;6.80;1.00;;;;;;5008712;28;19959;-70
2021/11/09 16:44:46;;;;;;;;;;;6.80;1.00;;;;;;5010671;28;19909;-71
2021/11/09 16:47:11;;;;;;;;;;;6.70;1.00;;;;;;5010821;28;19910;-71
2021/11/09 16:52:42;;;;;;;;;;;6.70;1.00;;;;;;4929652;29;20081;-72
2021/11/09 17:08:27;;;;;;;;;;;6.60;1.00;;;;;;5010494;28;19957;-72
2021/11/09 18:19:57;;;;;;;;;;;6.10;99.90;;;;;;5008944;28;20367;-73
2021/11/09 18:22:16;;;;;;;;;;;6.00;99.90;;;;;;5007112;28;20677;-74
2021/11/09 18:24:42;;;;;;;;;;;6.00;1.00;;;;;;5009628;28;19913;-73
2021/11/09 18:27:08;;;;;;;;;;;6.00;1.00;;;;;;5009171;28;19920;-70
2021/11/09 18:29:34;;;;;;;;;;;6.00;1.00;;;;;;5009528;28;19913;-72
2021/11/09 18:31:59;;;;;;;;;;;6.00;1.00;;;;;;5007768;28;20337;-72
2021/11/09 18:34:25;;;;;;;;;;;6.00;1.00;;;;;;5008750;28;20409;-70
2021/11/09 18:36:54;;;;;;;;;;;5.90;1.00;;;;;;5008782;28;19917;-71
2021/11/09 18:39:20;;;;;;;;;;;5.90;1.00;;;;;;5008935;28;19928;-72